createdAt,value
2023-01-03T00:02:00.720Z,100.00
2023-01-03T00:04:27.048Z,100.00
2023-01-03T00:06:53.331Z,100.00
2023-01-03T00:09:19.666Z,99.39
2023-01-03T00:11:46.025Z,98.31
2023-01-03T00:14:12.375Z,98.17
2023-01-03T00:16:38.815Z,98.30
2023-01-03T00:19:05.129Z,98.43
2023-01-03T00:21:31.478Z,97.53
2023-01-03T00:23:57.822Z,98.00
2023-01-03T00:26:24.138Z,98.61
2023-01-03T00:28:50.508Z,99.64
2023-01-03T00:31:16.878Z,100.00
2023-01-03T00:33:43.179Z,100.00
2023-01-03T00:36:09.549Z,100.00
2023-01-03T00:38:35.892Z,99.44
2023-01-03T00:41:02.217Z,97.54
2023-01-03T00:43:28.602Z,96.06
2023-01-03T00:45:54.989Z,95.02
2023-01-03T00:48:21.311Z,94.97
2023-01-03T00:50:47.638Z,95.50
2023-01-03T00:53:13.980Z,95.06
2023-01-03T00:55:40.302Z,94.41
2023-01-03T00:58:08.604Z,94.99
2023-01-03T01:00:33.059Z,95.08
2023-01-03T01:02:59.964Z,94.63
2023-01-03T01:05:26.087Z,95.04
2023-01-03T01:07:52.467Z,94.83
2023-01-03T01:10:18.823Z,95.00
2023-01-03T01:12:45.199Z,94.33
2023-01-03T01:15:11.526Z,93.74
2023-01-03T01:17:37.879Z,93.59
2023-01-03T01:20:04.243Z,93.89
2023-01-03T01:22:30.624Z,93.67
2023-01-03T01:24:56.985Z,93.39
2023-01-03T01:27:23.311Z,93.32
2023-01-03T01:29:49.685Z,92.65
2023-01-03T01:32:16.061Z,92.59
2023-01-03T01:34:42.392Z,93.52
2023-01-03T01:37:08.778Z,94.15
2023-01-03T01:39:35.136Z,94.65
2023-01-03T01:42:01.517Z,94.55
2023-01-03T01:44:27.843Z,95.28
2023-01-03T01:46:54.183Z,95.25
2023-01-03T01:49:20.498Z,94.59
2023-01-03T01:51:46.846Z,95.32
2023-01-03T01:54:13.215Z,95.92
2023-01-03T01:56:39.557Z,96.50
2023-01-03T01:59:05.914Z,96.73
2023-01-03T02:01:32.356Z,97.23
2023-01-03T02:03:58.585Z,97.27
2023-01-03T02:06:24.974Z,97.44
2023-01-03T02:08:51.338Z,96.93
2023-01-03T02:11:17.670Z,96.75
2023-01-03T02:13:44.029Z,96.36
2023-01-03T02:16:10.438Z,95.89
2023-01-03T02:18:36.756Z,95.74
2023-01-03T02:21:03.151Z,95.94
2023-01-03T02:23:29.503Z,95.80
2023-01-03T02:25:55.881Z,95.60
2023-01-03T02:28:22.271Z,95.43
2023-01-03T02:30:48.643Z,95.62
2023-01-03T02:33:14.932Z,95.72
2023-01-03T02:35:41.350Z,94.97
2023-01-03T02:38:07.822Z,94.93
2023-01-03T02:40:34.213Z,95.11
2023-01-03T02:43:00.530Z,94.43
2023-01-03T02:45:26.893Z,94.54
2023-01-03T02:47:53.257Z,93.86
2023-01-03T02:50:19.650Z,94.06
2023-01-03T02:52:46.023Z,93.22
2023-01-03T02:55:12.373Z,92.77
2023-01-03T02:57:38.702Z,93.01
2023-01-03T03:00:05.058Z,93.47
2023-01-03T03:02:31.588Z,94.16
2023-01-03T03:04:57.800Z,93.39
2023-01-03T03:07:24.125Z,93.07
2023-01-03T03:09:50.476Z,92.67
2023-01-03T03:12:16.838Z,91.78
2023-01-03T03:14:43.219Z,91.94
2023-01-03T03:17:09.600Z,92.34
2023-01-03T03:19:35.994Z,92.35
2023-01-03T03:22:02.304Z,92.67
2023-01-03T03:24:28.651Z,93.23
2023-01-03T03:26:54.977Z,92.25
2023-01-03T03:29:21.365Z,92.03
2023-01-03T03:31:47.769Z,92.36
2023-01-03T03:34:14.064Z,92.75
2023-01-03T03:36:40.386Z,93.17
2023-01-03T03:39:06.744Z,92.70
2023-01-03T03:41:33.109Z,92.04
2023-01-03T03:43:59.499Z,92.07
2023-01-03T03:46:25.834Z,91.84
2023-01-03T03:48:52.187Z,91.70
2023-01-03T03:51:18.505Z,92.25
2023-01-03T03:53:44.898Z,91.81
2023-01-03T03:56:11.219Z,91.46
2023-01-03T03:58:37.597Z,91.54
2023-01-03T04:01:03.915Z,91.40
2023-01-03T04:03:30.402Z,91.66
2023-01-03T04:05:56.668Z,92.12
2023-01-03T04:08:23.018Z,92.69
2023-01-03T04:10:49.396Z,92.47
2023-01-03T04:13:15.781Z,92.41
2023-01-03T04:15:42.164Z,92.63
2023-01-03T04:18:08.542Z,92.30
2023-01-03T04:20:34.856Z,92.22
2023-01-03T04:23:01.279Z,92.17
2023-01-03T04:25:27.568Z,92.23
2023-01-03T04:27:53.958Z,92.19
2023-01-03T04:30:20.317Z,92.53
2023-01-03T04:32:46.687Z,92.67
2023-01-03T04:35:13.004Z,93.00
2023-01-03T04:37:39.395Z,93.00
2023-01-03T04:40:05.707Z,93.16
2023-01-03T04:42:32.124Z,93.81
2023-01-03T04:44:58.417Z,93.78
2023-01-03T04:47:24.877Z,93.92
2023-01-03T04:49:51.200Z,93.65
2023-01-03T04:52:17.559Z,93.51
2023-01-03T04:54:43.874Z,93.86
2023-01-03T04:57:10.216Z,94.37
2023-01-03T04:59:36.596Z,94.51
2023-01-03T05:02:03.089Z,94.30
2023-01-03T05:04:29.338Z,94.56
2023-01-03T05:06:55.658Z,94.98
2023-01-03T05:09:22.018Z,95.78
2023-01-03T05:11:48.316Z,94.96
2023-01-03T05:14:14.963Z,94.89
2023-01-03T05:16:41.063Z,93.52
2023-01-03T05:19:07.367Z,93.53
2023-01-03T05:21:33.725Z,93.78
2023-01-03T05:24:00.152Z,93.83
2023-01-03T05:26:26.416Z,94.32
2023-01-03T05:28:52.772Z,94.54
2023-01-03T05:31:19.220Z,94.83
2023-01-03T05:33:45.487Z,94.93
2023-01-03T05:36:11.796Z,95.08
2023-01-03T05:38:38.165Z,95.50
2023-01-03T05:41:04.547Z,95.82
2023-01-03T05:43:30.924Z,96.10
2023-01-03T05:45:57.311Z,95.95
2023-01-03T05:48:23.598Z,96.07
2023-01-03T05:50:49.951Z,95.38
2023-01-03T05:53:16.291Z,95.02
2023-01-03T05:55:42.644Z,95.06
2023-01-03T05:58:08.963Z,94.82
2023-01-03T06:00:35.366Z,94.58
2023-01-03T06:03:01.820Z,94.62
2023-01-03T06:05:28.075Z,94.77
2023-01-03T06:07:54.456Z,94.44
2023-01-03T06:10:20.777Z,94.58
2023-01-03T06:12:47.192Z,94.67
2023-01-03T06:15:13.616Z,94.75
2023-01-03T06:17:39.891Z,95.01
2023-01-03T06:20:06.238Z,95.44
2023-01-03T06:22:32.609Z,95.70
2023-01-03T06:24:58.990Z,95.78
2023-01-03T06:27:25.388Z,95.78
2023-01-03T06:29:51.790Z,96.12
2023-01-03T06:32:18.130Z,96.40
2023-01-03T06:34:44.509Z,95.91
2023-01-03T06:37:10.823Z,96.17
2023-01-03T06:39:37.185Z,96.02
2023-01-03T06:42:03.553Z,95.84
2023-01-03T06:44:29.970Z,95.99
2023-01-03T06:46:56.289Z,95.80
2023-01-03T06:49:22.645Z,96.05
2023-01-03T06:51:48.949Z,96.97
2023-01-03T06:54:15.333Z,97.84
2023-01-03T06:56:41.776Z,97.47
2023-01-03T06:59:08.176Z,97.38
2023-01-03T07:01:34.624Z,97.00
2023-01-03T07:04:00.872Z,96.90
2023-01-03T07:06:28.540Z,96.54
2023-01-03T07:08:54.927Z,95.65
2023-01-03T07:11:21.250Z,94.57
2023-01-03T07:13:47.596Z,93.94
2023-01-03T07:16:13.964Z,93.27
2023-01-03T07:18:40.353Z,93.31
2023-01-03T07:21:06.713Z,93.58
2023-01-03T07:23:33.077Z,93.33
2023-01-03T07:25:59.473Z,93.11
2023-01-03T07:28:25.863Z,92.63
2023-01-03T07:30:52.260Z,91.81
2023-01-03T07:33:18.623Z,91.38
2023-01-03T07:35:44.940Z,91.44
2023-01-03T07:38:11.297Z,91.34
2023-01-03T07:40:37.623Z,91.61
2023-01-03T07:43:04.080Z,90.15
2023-01-03T07:45:30.427Z,89.03
2023-01-03T07:47:56.815Z,88.56
2023-01-03T07:50:23.166Z,86.72
2023-01-03T07:52:49.615Z,85.23
2023-01-03T07:55:15.931Z,84.49
2023-01-03T07:57:42.315Z,83.82
2023-01-03T08:00:08.645Z,83.50
2023-01-03T08:02:35.215Z,83.09
2023-01-03T08:05:01.545Z,82.64
2023-01-03T08:07:27.774Z,81.91
2023-01-03T08:09:54.159Z,81.21
2023-01-03T08:12:20.470Z,80.91
2023-01-03T08:14:46.872Z,80.76
2023-01-03T08:17:13.215Z,80.09
2023-01-03T08:19:45.296Z,79.61
2023-01-03T08:22:05.951Z,79.18
2023-01-03T08:24:32.343Z,78.79
2023-01-03T08:26:58.710Z,77.25
2023-01-03T08:29:25.046Z,76.37
2023-01-03T08:31:51.410Z,76.61
2023-01-03T08:34:22.291Z,75.55
2023-01-03T08:36:44.093Z,74.57
2023-01-03T08:39:10.431Z,73.83
2023-01-03T08:41:36.755Z,73.56
2023-01-03T08:44:03.324Z,73.93
2023-01-03T08:46:29.734Z,74.53
2023-01-03T08:48:56.118Z,72.81
2023-01-03T08:51:22.427Z,73.24
2023-01-03T08:53:48.774Z,73.35
2023-01-03T08:56:15.096Z,72.88
2023-01-03T08:58:41.484Z,73.60
2023-01-03T09:01:07.876Z,72.70
2023-01-03T09:03:34.370Z,73.10
2023-01-03T09:06:00.544Z,73.18
2023-01-03T09:08:26.941Z,72.65
2023-01-03T09:10:53.372Z,72.02
2023-01-03T09:13:19.850Z,72.27
2023-01-03T09:15:46.171Z,73.20
2023-01-03T09:18:12.491Z,74.29
2023-01-03T09:20:38.857Z,73.18
2023-01-03T09:23:05.204Z,73.65
2023-01-03T09:25:36.780Z,72.96
2023-01-03T09:27:57.946Z,72.40
2023-01-03T09:30:24.338Z,70.92
2023-01-03T09:32:50.745Z,69.95
2023-01-03T09:35:17.067Z,71.42
2023-01-03T09:37:48.731Z,71.08
2023-01-03T09:40:09.777Z,69.59
2023-01-03T09:42:36.163Z,70.65
2023-01-03T09:45:02.526Z,70.59
2023-01-03T09:47:28.853Z,70.94
2023-01-03T09:50:27.636Z,70.59
2023-01-03T09:52:21.571Z,68.78
2023-01-03T09:54:47.924Z,69.72
2023-01-03T09:57:14.349Z,70.57
2023-01-03T09:59:40.665Z,70.44
2023-01-03T10:02:07.258Z,67.73
2023-01-03T10:04:33.428Z,67.18
2023-01-03T10:06:59.813Z,66.49
2023-01-03T10:09:26.147Z,66.03
2023-01-03T10:11:52.474Z,64.62
2023-01-03T10:14:18.819Z,64.79
2023-01-03T10:16:45.219Z,65.35
2023-01-03T10:19:11.518Z,66.00
2023-01-03T10:21:37.912Z,66.80
2023-01-03T10:24:04.230Z,66.66
2023-01-03T10:26:32.973Z,67.49
2023-01-03T10:28:56.977Z,67.77
2023-01-03T10:31:23.383Z,67.95
2023-01-03T10:33:49.673Z,66.36
2023-01-03T10:36:16.072Z,64.25
2023-01-03T10:38:47.864Z,65.42
2023-01-03T10:41:08.780Z,63.60
2023-01-03T10:43:35.145Z,63.61
2023-01-03T10:46:01.550Z,62.77
2023-01-03T10:48:27.885Z,62.66
2023-01-03T10:50:54.228Z,62.71
2023-01-03T10:53:20.589Z,62.99
2023-01-03T10:55:46.968Z,61.87
2023-01-03T10:58:13.295Z,61.76
2023-01-03T11:00:39.681Z,60.82
2023-01-03T11:03:06.200Z,60.22
2023-01-03T11:05:32.423Z,60.95
2023-01-03T11:07:58.736Z,61.53
2023-01-03T11:10:25.116Z,61.44
2023-01-03T11:12:51.426Z,59.79
2023-01-03T11:15:17.826Z,60.42
2023-01-03T11:17:44.134Z,60.05
2023-01-03T11:20:10.554Z,59.22
2023-01-03T11:22:38.209Z,61.03
2023-01-03T11:25:03.292Z,59.58
2023-01-03T11:27:29.599Z,58.85
2023-01-03T11:29:55.988Z,59.24
2023-01-03T11:32:22.367Z,58.98
2023-01-03T11:35:21.562Z,58.64
2023-01-03T11:37:15.024Z,58.73
2023-01-03T11:39:41.404Z,57.09
2023-01-03T11:42:07.734Z,56.08
2023-01-03T11:44:34.067Z,55.81
2023-01-03T11:47:00.433Z,55.32
2023-01-03T11:49:26.794Z,56.18
2023-01-03T11:51:53.127Z,56.26
2023-01-03T11:54:19.496Z,56.47
2023-01-03T11:56:45.865Z,56.27
2023-01-03T11:59:12.270Z,56.35
2023-01-03T12:01:39.779Z,55.88
2023-01-03T12:04:04.983Z,56.28
2023-01-03T12:06:31.273Z,56.80
2023-01-03T12:08:57.636Z,56.29
2023-01-03T12:11:23.999Z,57.03
2023-01-03T12:13:50.338Z,57.27
2023-01-03T12:16:16.768Z,56.60
2023-01-03T12:18:43.050Z,55.62
2023-01-03T12:21:09.418Z,54.65
2023-01-03T12:23:35.746Z,54.11
2023-01-03T12:26:03.215Z,54.77
2023-01-03T12:28:29.555Z,54.16
2023-01-03T12:30:55.927Z,55.55
2023-01-03T12:33:22.237Z,55.34
2023-01-03T12:35:48.573Z,55.62
2023-01-03T12:38:14.981Z,55.49
2023-01-03T12:40:41.308Z,54.55
2023-01-03T12:43:07.683Z,54.18
2023-01-03T12:45:34.830Z,53.56
2023-01-03T12:48:00.374Z,53.10
2023-01-03T12:50:26.691Z,53.04
2023-01-03T12:52:53.040Z,52.65
2023-01-03T12:55:19.425Z,52.45
2023-01-03T12:57:45.785Z,51.75
2023-01-03T13:00:12.148Z,51.77
2023-01-03T13:02:38.645Z,50.08
2023-01-03T13:05:04.895Z,51.11
2023-01-03T13:07:31.282Z,50.38
2023-01-03T13:10:01.145Z,50.82
2023-01-03T13:12:23.976Z,50.92
2023-01-03T13:14:50.312Z,50.27
2023-01-03T13:17:16.687Z,50.58
2023-01-03T13:19:43.018Z,50.66
2023-01-03T13:22:09.364Z,50.54
2023-01-03T13:24:35.679Z,50.38
2023-01-03T13:27:02.074Z,50.08
2023-01-03T13:29:28.465Z,49.73
2023-01-03T13:31:54.861Z,50.02
2023-01-03T13:34:21.175Z,49.54
2023-01-03T13:36:47.610Z,49.49
2023-01-03T13:39:13.949Z,49.30
2023-01-03T13:41:40.310Z,49.68
2023-01-03T13:44:06.643Z,49.46
2023-01-03T13:46:33.122Z,49.73
2023-01-03T13:48:59.400Z,50.13
2023-01-03T13:51:25.737Z,50.76
2023-01-03T13:53:52.114Z,51.08
2023-01-03T13:56:18.490Z,51.45
2023-01-03T13:58:44.816Z,51.72
2023-01-03T14:01:11.240Z,52.56
2023-01-03T14:03:37.662Z,53.45
2023-01-03T14:06:03.943Z,54.17
2023-01-03T14:08:35.230Z,54.78
2023-01-03T14:10:56.714Z,55.29
2023-01-03T14:13:23.005Z,55.45
2023-01-03T14:15:49.498Z,55.90
2023-01-03T14:18:15.747Z,56.48
2023-01-03T14:20:42.160Z,56.62
2023-01-03T14:23:31.919Z,57.01
2023-01-03T14:25:34.868Z,57.85
2023-01-03T14:28:01.227Z,58.24
2023-01-03T14:30:27.594Z,58.45
2023-01-03T14:32:53.935Z,59.05
2023-01-03T14:35:20.286Z,59.30
2023-01-03T14:37:46.651Z,59.67
2023-01-03T14:40:13.023Z,60.17
2023-01-03T14:42:39.355Z,60.70
2023-01-03T14:45:05.720Z,61.63
2023-01-03T14:47:32.031Z,61.80
2023-01-03T14:49:58.411Z,61.85
2023-01-03T14:52:24.773Z,61.75
2023-01-03T14:54:51.167Z,61.42
2023-01-03T14:57:17.512Z,61.57
2023-01-03T14:59:43.900Z,61.79
2023-01-03T15:02:10.493Z,62.63
2023-01-03T15:04:36.646Z,63.20
2023-01-03T15:07:11.057Z,63.59
2023-01-03T15:09:29.323Z,63.82
2023-01-03T15:11:55.706Z,64.42
2023-01-03T15:14:22.045Z,64.52
2023-01-03T15:16:48.424Z,64.75
2023-01-03T15:19:14.810Z,65.11
2023-01-03T15:21:41.084Z,65.34
2023-01-03T15:24:07.454Z,65.69
2023-01-03T15:26:33.817Z,66.26
2023-01-03T15:29:00.226Z,66.32
2023-01-03T15:31:26.614Z,66.33
2023-01-03T15:33:52.975Z,66.46
2023-01-03T15:36:19.650Z,66.57
2023-01-03T15:38:45.662Z,66.90
2023-01-03T15:41:12.021Z,67.07
2023-01-03T15:43:38.383Z,67.29
2023-01-03T15:46:04.803Z,67.66
2023-01-03T15:48:31.064Z,67.78
2023-01-03T15:50:57.471Z,68.03
2023-01-03T15:53:23.856Z,68.13
2023-01-03T15:55:50.174Z,68.16
2023-01-03T15:58:16.533Z,68.53
2023-01-03T16:00:42.923Z,68.62
2023-01-03T16:03:09.272Z,68.69
2023-01-03T16:05:35.595Z,68.95
2023-01-03T16:08:01.943Z,69.19
2023-01-03T16:10:28.305Z,69.56
2023-01-03T16:12:54.655Z,69.92
2023-01-03T16:15:21.045Z,70.01
2023-01-03T16:17:47.413Z,70.37
2023-01-03T16:20:13.773Z,70.28
2023-01-03T16:22:48.608Z,70.24
2023-01-03T16:25:06.465Z,70.53
2023-01-03T16:27:32.859Z,70.53
2023-01-03T16:29:59.420Z,70.84
2023-01-03T16:32:25.605Z,71.00
2023-01-03T16:34:51.857Z,71.35
2023-01-03T16:37:18.233Z,71.66
2023-01-03T16:39:48.307Z,72.09
2023-01-03T16:42:10.935Z,71.63
2023-01-03T16:44:37.284Z,71.80
2023-01-03T16:47:03.658Z,71.98
2023-01-03T16:49:30.022Z,72.19
2023-01-03T16:51:57.915Z,72.65
2023-01-03T16:54:22.758Z,72.72
2023-01-03T16:56:49.131Z,72.49
2023-01-03T16:59:15.447Z,72.38
2023-01-03T17:01:41.926Z,72.58
2023-01-03T17:04:08.271Z,72.85
2023-01-03T17:06:38.366Z,73.04
2023-01-03T17:09:00.919Z,73.24
2023-01-03T17:11:27.261Z,73.52
2023-01-03T17:13:53.706Z,73.67
2023-01-03T17:16:20.106Z,73.99
2023-01-03T17:18:46.367Z,74.19
2023-01-03T17:21:12.718Z,74.33
2023-01-03T17:23:39.048Z,74.45
2023-01-03T17:26:05.451Z,74.25
2023-01-03T17:28:31.797Z,74.16
2023-01-03T17:30:58.260Z,74.17
2023-01-03T17:33:28.634Z,74.23
2023-01-03T17:35:50.911Z,74.55
2023-01-03T17:38:26.145Z,74.38
2023-01-03T17:40:43.685Z,74.57
2023-01-03T17:43:10.013Z,74.62
2023-01-03T17:45:36.401Z,74.90
2023-01-03T17:48:02.747Z,75.01
2023-01-03T17:50:29.109Z,75.22
2023-01-03T17:52:56.469Z,75.31
2023-01-03T17:55:21.831Z,75.54
2023-01-03T17:57:48.155Z,75.75
2023-01-03T18:00:14.560Z,76.27
2023-01-03T18:02:41.164Z,76.58
2023-01-03T18:05:19.942Z,76.63
2023-01-03T18:07:33.659Z,77.05
2023-01-03T18:10:00.077Z,77.19
2023-01-03T18:12:26.435Z,77.65
2023-01-03T18:14:52.811Z,77.68
2023-01-03T18:17:19.174Z,77.77
2023-01-03T18:19:45.564Z,77.83
2023-01-03T18:22:11.899Z,77.81
2023-01-03T18:24:38.251Z,77.68
2023-01-03T18:27:04.614Z,77.57
2023-01-03T18:29:30.927Z,77.69
2023-01-03T18:31:57.346Z,77.83
2023-01-03T18:34:23.844Z,78.17
2023-01-03T18:36:50.206Z,77.96
2023-01-03T18:39:16.575Z,78.60
2023-01-03T18:41:42.937Z,78.53
2023-01-03T18:44:09.354Z,79.00
2023-01-03T18:46:35.773Z,79.18
2023-01-03T18:49:02.035Z,79.34
2023-01-03T18:51:28.428Z,79.29
2023-01-03T18:53:54.774Z,79.50
2023-01-03T18:56:21.162Z,79.64
2023-01-03T18:58:47.488Z,79.85
2023-01-03T19:01:13.979Z,80.31
2023-01-03T19:03:40.399Z,80.49
2023-01-03T19:06:06.640Z,80.86
2023-01-03T19:08:33.046Z,81.03
2023-01-03T19:10:59.411Z,81.58
2023-01-03T19:13:25.735Z,81.77
2023-01-03T19:15:52.143Z,81.61
2023-01-03T19:18:18.461Z,81.21
2023-01-03T19:20:44.867Z,81.35
2023-01-03T19:23:11.234Z,81.37
2023-01-03T19:25:37.607Z,81.23
2023-01-03T19:28:03.979Z,80.98
2023-01-03T19:30:36.977Z,80.92
2023-01-03T19:32:56.692Z,80.85
2023-01-03T19:35:23.063Z,80.98
2023-01-03T19:37:49.424Z,81.04
2023-01-03T19:40:15.766Z,81.14
2023-01-03T19:42:42.135Z,81.38
2023-01-03T19:45:08.517Z,81.49
2023-01-03T19:47:34.902Z,81.28
2023-01-03T19:50:06.232Z,81.58
2023-01-03T19:52:27.649Z,81.54
2023-01-03T19:54:54.032Z,81.65
2023-01-03T19:57:20.365Z,81.65
2023-01-03T19:59:46.747Z,81.67
2023-01-03T20:02:28.618Z,82.10
2023-01-03T20:04:39.591Z,82.25
2023-01-03T20:07:05.852Z,82.63
2023-01-03T20:09:32.376Z,82.70
2023-01-03T20:11:58.692Z,82.84
2023-01-03T20:14:25.110Z,83.35
2023-01-03T20:16:51.481Z,83.65
2023-01-03T20:19:17.863Z,83.21
2023-01-03T20:21:44.217Z,83.45
2023-01-03T20:24:10.543Z,84.24
2023-01-03T20:26:36.869Z,84.15
2023-01-03T20:29:03.215Z,84.60
2023-01-03T20:31:29.685Z,84.74
2023-01-03T20:33:56.058Z,84.55
2023-01-03T20:36:23.721Z,84.52
2023-01-03T20:38:48.769Z,83.92
2023-01-03T20:41:15.125Z,83.71
2023-01-03T20:43:41.512Z,83.97
2023-01-03T20:46:07.883Z,83.61
2023-01-03T20:48:34.227Z,83.64
2023-01-03T20:51:00.611Z,85.17
2023-01-03T20:53:27.021Z,86.46
2023-01-03T20:55:53.359Z,87.48
2023-01-03T20:58:19.676Z,88.39
2023-01-03T21:00:46.198Z,88.87
2023-01-03T21:03:12.650Z,89.23
2023-01-03T21:05:38.850Z,89.50
2023-01-03T21:08:05.260Z,89.83
2023-01-03T21:10:31.537Z,90.29
2023-01-03T21:12:57.936Z,90.20
2023-01-03T21:15:24.296Z,90.78
2023-01-03T21:17:51.308Z,91.31
2023-01-03T21:20:17.054Z,91.47
2023-01-03T21:22:43.389Z,91.23
2023-01-03T21:25:09.779Z,91.28
2023-01-03T21:27:36.115Z,91.60
2023-01-03T21:30:02.476Z,91.61
2023-01-03T21:32:28.808Z,91.81
2023-01-03T21:34:55.156Z,92.13
2023-01-03T21:37:21.495Z,92.49
2023-01-03T21:39:47.818Z,92.27
2023-01-03T21:42:14.203Z,92.41
2023-01-03T21:44:40.594Z,92.51
2023-01-03T21:47:06.986Z,92.36
2023-01-03T21:49:33.300Z,92.34
2023-01-03T21:51:59.644Z,92.33
2023-01-03T21:54:25.971Z,92.00
2023-01-03T21:56:52.363Z,91.77
2023-01-03T21:59:18.738Z,91.05
2023-01-03T22:01:45.194Z,90.57
2023-01-03T22:04:11.482Z,90.13
2023-01-03T22:06:37.789Z,90.94
2023-01-03T22:09:04.117Z,91.49
2023-01-03T22:11:30.491Z,91.63
2023-01-03T22:13:56.863Z,92.06
2023-01-03T22:16:23.361Z,92.22
2023-01-03T22:18:49.584Z,91.90
2023-01-03T22:21:15.966Z,92.12
2023-01-03T22:23:42.292Z,92.32
2023-01-03T22:26:08.651Z,92.37
2023-01-03T22:28:35.059Z,92.44
2023-01-03T22:31:01.415Z,92.31
2023-01-03T22:33:27.747Z,92.56
2023-01-03T22:35:54.190Z,92.35
2023-01-03T22:38:20.503Z,92.45
2023-01-03T22:40:46.846Z,92.03
2023-01-03T22:43:13.211Z,92.29
2023-01-03T22:45:39.650Z,92.32
2023-01-03T22:48:05.995Z,92.88
2023-01-03T22:50:32.363Z,92.78
2023-01-03T22:52:58.685Z,92.71
2023-01-03T22:55:28.352Z,92.45
2023-01-03T22:57:51.415Z,92.82
2023-01-03T23:00:17.757Z,93.65
2023-01-03T23:02:44.137Z,93.92
2023-01-03T23:05:10.435Z,93.73
2023-01-03T23:07:36.761Z,93.10
2023-01-03T23:10:03.151Z,93.28
2023-01-03T23:12:29.470Z,93.57
2023-01-03T23:14:55.856Z,93.36
2023-01-03T23:17:22.248Z,93.24
2023-01-03T23:19:48.590Z,93.37
2023-01-03T23:22:14.907Z,93.46
2023-01-03T23:24:41.333Z,93.82
2023-01-03T23:27:07.667Z,93.58
2023-01-03T23:29:34.060Z,93.40
2023-01-03T23:32:00.444Z,93.59
2023-01-03T23:34:26.838Z,93.47
2023-01-03T23:36:53.122Z,94.12
2023-01-03T23:39:19.460Z,94.04
2023-01-03T23:41:45.932Z,94.41
2023-01-03T23:44:12.275Z,93.95
2023-01-03T23:46:38.641Z,95.35
2023-01-03T23:49:04.985Z,95.17
2023-01-03T23:51:31.301Z,96.17
2023-01-03T23:53:57.681Z,95.34
2023-01-03T23:56:23.997Z,94.66
2023-01-03T23:58:50.397Z,94.55
